createdAt,value
2019-01-24T00:00:24.927Z,-1.60
2019-01-24T00:02:29.575Z,-1.60
2019-01-24T00:04:34.441Z,-1.70
2019-01-24T00:06:43.397Z,-1.70
2019-01-24T00:08:48.093Z,-1.70
2019-01-24T00:10:52.791Z,-1.80
2019-01-24T00:12:57.217Z,-1.80
2019-01-24T00:15:02.094Z,-1.80
2019-01-24T00:17:06.818Z,-1.80
2019-01-24T00:19:11.561Z,-1.80
2019-01-24T00:21:17.241Z,-1.80
2019-01-24T00:23:23.656Z,-1.80
2019-01-24T00:25:28.975Z,-1.90
2019-01-24T00:27:35.343Z,-1.80
2019-01-24T00:29:41.003Z,-1.80
2019-01-24T00:31:45.511Z,-1.80
2019-01-24T00:33:50.286Z,-1.80
2019-01-24T00:35:55.694Z,-1.80
2019-01-24T00:38:03.218Z,-1.90
2019-01-24T00:40:09.090Z,-1.80
2019-01-24T00:42:13.612Z,-1.80
2019-01-24T00:44:18.394Z,-1.80
2019-01-24T00:46:22.802Z,-1.70
2019-01-24T00:48:27.162Z,-1.70
2019-01-24T00:50:31.548Z,-1.90
2019-01-24T00:52:36.010Z,-1.80
2019-01-24T00:54:40.750Z,-1.90
2019-01-24T00:56:45.224Z,-1.90
2019-01-24T00:58:49.712Z,-1.90
2019-01-24T01:00:54.200Z,-1.80
2019-01-24T01:02:58.666Z,-1.80
2019-01-24T01:05:06.731Z,-1.80
2019-01-24T01:07:11.359Z,-1.70
2019-01-24T01:09:17.531Z,-1.80
2019-01-24T01:11:22.081Z,-1.70
2019-01-24T01:13:26.488Z,-1.70
2019-01-24T01:15:33.951Z,-1.80
2019-01-24T01:17:38.411Z,-1.90
2019-01-24T01:19:42.812Z,-1.90
2019-01-24T01:21:47.298Z,-1.80
2019-01-24T01:23:51.712Z,-1.90
2019-01-24T01:25:59.525Z,-1.80
2019-01-24T01:28:04.020Z,-1.80
2019-01-24T01:30:14.266Z,-1.90
2019-01-24T01:32:18.873Z,-2.00
2019-01-24T01:34:24.644Z,-1.90
2019-01-24T01:36:29.833Z,-1.90
2019-01-24T01:38:34.545Z,-1.90
2019-01-24T01:40:45.019Z,-2.00
2019-01-24T01:42:49.885Z,-2.00
2019-01-24T01:44:55.978Z,-2.00
2019-01-24T01:47:03.151Z,-2.00
2019-01-24T01:49:07.547Z,-1.90
2019-01-24T01:51:13.091Z,-1.90
2019-01-24T01:53:17.474Z,-1.90
2019-01-24T01:55:24.326Z,-2.00
2019-01-24T01:57:31.833Z,-2.00
2019-01-24T01:59:39.143Z,-2.00
2019-01-24T02:01:44.069Z,-2.00
2019-01-24T02:03:49.430Z,-2.00
2019-01-24T02:05:53.799Z,-2.00
2019-01-24T02:07:58.626Z,-2.10
2019-01-24T02:10:03.431Z,-2.00
2019-01-24T02:12:07.843Z,-2.00
2019-01-24T02:14:13.826Z,-2.00
2019-01-24T02:16:18.528Z,-1.90
2019-01-24T02:18:23.015Z,-1.90
2019-01-24T02:20:29.697Z,-2.00
2019-01-24T02:22:56.094Z,-2.00
2019-01-24T02:25:00.485Z,-2.00
2019-01-24T02:27:05.930Z,-2.10
2019-01-24T02:29:10.307Z,-2.00
2019-01-24T02:31:14.734Z,-2.00
2019-01-24T02:33:19.474Z,-2.10
2019-01-24T02:35:25.948Z,-2.00
2019-01-24T02:37:30.694Z,-2.10
2019-01-24T02:39:35.403Z,-2.10
2019-01-24T02:41:39.846Z,-2.10
2019-01-24T02:43:44.176Z,-2.10
2019-01-24T02:45:49.756Z,-2.10
2019-01-24T02:47:54.916Z,-2.20
2019-01-24T02:50:00.347Z,-2.10
2019-01-24T02:52:04.734Z,-2.10
2019-01-24T02:54:14.325Z,-2.20
2019-01-24T02:56:20.260Z,-2.20
2019-01-24T02:58:24.738Z,-2.20
2019-01-24T03:00:29.543Z,-2.20
2019-01-24T03:02:34.229Z,-2.10
2019-01-24T03:04:41.120Z,-2.20
2019-01-24T03:06:45.464Z,-2.20
2019-01-24T03:08:49.950Z,-2.30
2019-01-24T03:10:54.510Z,-2.30
2019-01-24T03:12:58.999Z,-2.30
2019-01-24T03:15:04.045Z,-2.30
2019-01-24T03:17:09.244Z,-2.20
2019-01-24T03:19:13.675Z,-2.30
2019-01-24T03:21:18.186Z,-2.30
2019-01-24T03:23:23.997Z,-2.20
2019-01-24T03:25:28.582Z,-2.20
2019-01-24T03:27:33.865Z,-2.00
2019-01-24T03:29:38.699Z,-2.10
2019-01-24T03:31:43.114Z,-2.00
2019-01-24T03:33:47.586Z,-2.10
2019-01-24T03:35:52.097Z,-2.10
2019-01-24T03:37:56.906Z,-2.10
2019-01-24T03:40:01.361Z,-2.10
2019-01-24T03:42:06.257Z,-2.10
2019-01-24T03:44:13.570Z,-2.00
2019-01-24T03:46:17.963Z,-2.00
2019-01-24T03:48:22.334Z,-2.00
2019-01-24T03:50:26.910Z,-2.00
2019-01-24T03:52:32.076Z,-2.00
2019-01-24T03:54:37.738Z,-1.90
2019-01-24T03:56:42.918Z,-1.90
2019-01-24T03:58:50.485Z,-1.90
2019-01-24T04:00:55.318Z,-1.90
2019-01-24T04:03:00.100Z,-1.90
2019-01-24T04:05:11.812Z,-2.00
2019-01-24T04:07:13.311Z,-2.00
2019-01-24T04:09:18.389Z,-2.00
2019-01-24T04:11:24.276Z,-2.00
2019-01-24T04:13:29.068Z,-2.00
2019-01-24T04:15:33.455Z,-2.00
2019-01-24T04:17:37.827Z,-2.00
2019-01-24T04:19:42.328Z,-2.10
2019-01-24T04:21:46.811Z,-2.10
2019-01-24T04:23:51.191Z,-2.00
2019-01-24T04:25:55.665Z,-2.00
2019-01-24T04:28:00.891Z,-1.90
2019-01-24T04:30:06.351Z,-1.90
2019-01-24T04:32:11.329Z,-1.90
2019-01-24T04:34:16.181Z,-1.90
2019-01-24T04:36:20.728Z,-1.90
2019-01-24T04:38:25.156Z,-1.90
2019-01-24T04:40:33.436Z,-2.00
2019-01-24T04:42:37.844Z,-2.00
2019-01-24T04:44:42.273Z,-2.00
2019-01-24T04:46:46.642Z,-2.10
2019-01-24T04:48:51.031Z,-2.10
2019-01-24T04:50:55.875Z,-2.00
2019-01-24T04:53:00.327Z,-2.10
2019-01-24T04:55:05.144Z,-2.20
2019-01-24T04:57:09.574Z,-2.20
2019-01-24T04:59:14.334Z,-2.10
2019-01-24T05:01:18.820Z,-2.00
2019-01-24T05:03:23.303Z,-2.10
2019-01-24T05:05:28.209Z,-2.20
2019-01-24T05:07:32.717Z,-2.20
2019-01-24T05:09:37.186Z,-2.10
2019-01-24T05:11:41.554Z,-2.10
2019-01-24T05:13:48.932Z,-2.10
2019-01-24T05:15:53.388Z,-2.10
2019-01-24T05:18:02.295Z,-2.10
2019-01-24T05:20:09.213Z,-2.20
2019-01-24T05:22:13.717Z,-2.20
2019-01-24T05:24:18.438Z,-2.20
2019-01-24T05:26:23.187Z,-2.10
2019-01-24T05:28:31.316Z,-2.10
2019-01-24T05:30:38.090Z,-2.10
2019-01-24T05:32:44.837Z,-2.10
2019-01-24T05:34:51.968Z,-2.10
2019-01-24T05:36:57.889Z,-2.20
2019-01-24T05:39:04.530Z,-2.20
2019-01-24T05:41:09.277Z,-2.30
2019-01-24T05:43:13.668Z,-2.20
2019-01-24T05:45:18.374Z,-2.20
2019-01-24T05:47:22.882Z,-2.30
2019-01-24T05:49:30.219Z,-2.20
2019-01-24T05:51:34.765Z,-2.30
2019-01-24T05:53:40.270Z,-2.20
2019-01-24T05:55:47.469Z,-2.20
2019-01-24T05:57:51.901Z,-2.30
2019-01-24T05:59:56.697Z,-2.40
2019-01-24T06:02:01.199Z,-2.30
2019-01-24T06:04:06.941Z,-2.30
2019-01-24T06:06:12.951Z,-2.30
2019-01-24T06:08:17.659Z,-2.40
2019-01-24T06:10:22.065Z,-2.40
2019-01-24T06:12:27.969Z,-2.30
2019-01-24T06:14:32.734Z,-2.40
2019-01-24T06:16:39.972Z,-2.40
2019-01-24T06:18:46.415Z,-2.30
2019-01-24T06:20:53.813Z,-2.30
2019-01-24T06:22:58.290Z,-2.30
2019-01-24T06:25:02.852Z,-2.20
2019-01-24T06:27:08.558Z,-2.30
2019-01-24T06:29:13.834Z,-2.30
2019-01-24T06:31:18.411Z,-2.40
2019-01-24T06:33:23.130Z,-2.40
2019-01-24T06:35:27.493Z,-2.40
2019-01-24T06:37:32.737Z,-2.40
2019-01-24T06:39:38.805Z,-2.50
2019-01-24T06:41:44.691Z,-2.50
2019-01-24T06:43:49.170Z,-2.50
2019-01-24T06:45:57.064Z,-2.50
2019-01-24T06:48:01.771Z,-2.60
2019-01-24T06:50:09.632Z,-2.60
2019-01-24T06:52:15.605Z,-2.60
2019-01-24T06:54:20.173Z,-2.60
2019-01-24T06:56:25.089Z,-2.60
2019-01-24T06:58:29.663Z,-2.60
2019-01-24T07:00:34.549Z,-2.60
2019-01-24T07:02:39.475Z,-2.60
2019-01-24T07:04:46.333Z,-2.50
2019-01-24T07:06:52.085Z,-2.60
2019-01-24T07:08:56.977Z,-2.60
2019-01-24T07:11:02.060Z,-2.60
2019-01-24T07:13:07.050Z,-2.70
2019-01-24T07:15:17.436Z,-2.60
2019-01-24T07:17:22.683Z,-2.60
2019-01-24T07:19:34.601Z,-2.60
2019-01-24T07:21:44.216Z,-2.60
2019-01-24T07:23:51.824Z,-2.60
2019-01-24T07:25:58.403Z,-2.70
2019-01-24T07:28:53.740Z,-2.70
2019-01-24T07:30:44.608Z,-2.70
2019-01-24T07:33:11.659Z,-2.70
2019-01-24T07:35:17.262Z,-2.70
2019-01-24T07:37:21.779Z,-2.70
2019-01-24T07:39:26.609Z,-2.70
2019-01-24T07:41:52.393Z,-2.70
2019-01-24T07:43:58.406Z,-2.70
2019-01-24T07:46:03.099Z,-2.60
2019-01-24T07:48:08.691Z,-2.70
2019-01-24T07:50:13.597Z,-2.60
2019-01-24T07:52:25.431Z,-2.60
2019-01-24T07:54:29.374Z,-2.70
2019-01-24T07:56:34.203Z,-2.60
2019-01-24T07:58:39.234Z,-2.60
2019-01-24T08:00:43.868Z,-2.60
2019-01-24T08:02:49.489Z,-2.60
2019-01-24T08:04:55.614Z,-2.70
2019-01-24T08:07:04.090Z,-2.70
2019-01-24T08:09:09.555Z,-2.70
2019-01-24T08:11:20.941Z,-2.60
2019-01-24T08:13:28.157Z,-2.50
2019-01-24T08:15:34.836Z,-2.40
2019-01-24T08:17:39.657Z,-2.40
2019-01-24T08:19:44.355Z,-2.40
2019-01-24T08:21:50.193Z,-2.50
2019-01-24T08:23:57.393Z,-2.50
2019-01-24T08:26:01.944Z,-2.40
2019-01-24T08:28:06.549Z,-2.40
2019-01-24T08:30:14.929Z,-2.30
2019-01-24T08:32:23.153Z,-2.40
2019-01-24T08:34:27.667Z,-2.40
2019-01-24T08:36:32.160Z,-2.30
2019-01-24T08:38:39.621Z,-2.20
2019-01-24T08:40:44.590Z,-2.10
2019-01-24T08:42:49.491Z,-2.30
2019-01-24T08:44:54.351Z,-2.40
2019-01-24T08:46:58.816Z,-2.30
2019-01-24T08:49:04.538Z,-2.20
2019-01-24T08:51:09.384Z,-2.20
2019-01-24T08:53:14.307Z,-2.30
2019-01-24T08:55:27.565Z,-2.40
2019-01-24T08:57:32.802Z,-2.40
2019-01-24T08:59:37.730Z,-2.40
2019-01-24T09:01:46.783Z,-2.30
2019-01-24T09:03:53.083Z,-2.30
2019-01-24T09:05:59.374Z,-2.30
2019-01-24T09:08:05.121Z,-2.30
2019-01-24T09:10:27.261Z,-2.30
2019-01-24T09:12:38.011Z,-2.10
2019-01-24T09:14:45.153Z,-2.00
2019-01-24T09:16:59.533Z,-2.10
2019-01-24T09:19:07.700Z,-2.20
2019-01-24T09:21:12.151Z,-2.20
2019-01-24T09:23:20.429Z,-2.30
2019-01-24T09:25:29.343Z,-2.40
2019-01-24T09:27:39.045Z,-2.40
2019-01-24T09:29:44.111Z,-2.20
2019-01-24T09:31:55.730Z,-2.20
2019-01-24T09:34:01.178Z,-2.20
2019-01-24T09:36:05.993Z,-2.20
2019-01-24T09:38:10.926Z,-2.10
2019-01-24T09:40:16.271Z,-2.20
2019-01-24T09:42:21.766Z,-2.10
2019-01-24T09:44:30.542Z,-2.10
2019-01-24T09:46:38.908Z,-2.10
2019-01-24T09:49:03.673Z,-2.00
2019-01-24T09:51:18.885Z,-1.90
2019-01-24T09:53:28.888Z,-1.90
2019-01-24T09:55:51.066Z,-1.90
2019-01-24T09:58:16.891Z,-1.80
2019-01-24T10:00:39.728Z,-1.80
2019-01-24T10:02:47.589Z,-1.90
2019-01-24T10:04:54.536Z,-1.90
2019-01-24T10:07:03.699Z,-1.80
2019-01-24T10:09:13.864Z,-2.00
2019-01-24T10:11:23.527Z,-1.90
2019-01-24T10:13:33.708Z,-2.00
2019-01-24T10:15:40.975Z,-2.00
2019-01-24T10:17:45.550Z,-2.10
2019-01-24T10:19:50.221Z,-2.20
2019-01-24T10:21:54.971Z,-2.20
2019-01-24T10:23:59.519Z,-2.30
2019-01-24T10:26:04.199Z,-2.30
2019-01-24T10:28:09.445Z,-2.30
2019-01-24T10:30:16.080Z,-2.30
2019-01-24T10:32:21.040Z,-2.20
2019-01-24T10:34:27.161Z,-2.20
2019-01-24T10:36:32.084Z,-2.20
2019-01-24T10:38:36.563Z,-2.20
2019-01-24T10:40:41.517Z,-2.30
2019-01-24T10:42:46.236Z,-2.30
2019-01-24T10:44:51.082Z,-2.20
2019-01-24T10:46:56.041Z,-2.10
2019-01-24T10:49:00.711Z,-2.20
2019-01-24T10:51:05.973Z,-2.10
2019-01-24T10:53:10.964Z,-2.00
2019-01-24T10:55:17.856Z,-1.80
2019-01-24T10:57:22.592Z,-1.90
2019-01-24T10:59:27.393Z,-2.00
2019-01-24T11:01:32.391Z,-2.20
2019-01-24T11:03:36.889Z,-2.10
2019-01-24T11:05:41.659Z,-2.10
2019-01-24T11:07:46.383Z,-2.00
2019-01-24T11:09:50.872Z,-1.90
2019-01-24T11:11:56.066Z,-1.70
2019-01-24T11:14:00.928Z,-1.70
2019-01-24T11:16:09.833Z,-1.70
2019-01-24T11:18:19.018Z,-1.80
2019-01-24T11:20:36.178Z,-1.80
2019-01-24T11:22:45.643Z,-1.80
2019-01-24T11:24:56.830Z,-1.90
2019-01-24T11:27:06.447Z,-1.80
2019-01-24T11:29:13.771Z,-1.90
2019-01-24T11:31:22.795Z,-1.80
2019-01-24T11:33:28.372Z,-1.80
2019-01-24T11:35:48.847Z,-1.90
2019-01-24T11:37:56.370Z,-1.90
2019-01-24T11:40:02.237Z,-2.00
2019-01-24T11:42:14.522Z,-1.90
2019-01-24T11:44:32.399Z,-1.90
2019-01-24T11:47:02.794Z,-1.80
2019-01-24T11:49:12.480Z,-1.70
2019-01-24T11:51:21.899Z,-1.70
2019-01-24T11:53:33.629Z,-1.80
2019-01-24T11:55:40.374Z,-1.80
2019-01-24T11:57:56.629Z,-2.00
2019-01-24T12:00:05.428Z,-2.00
2019-01-24T12:02:20.405Z,-2.10
2019-01-24T12:04:25.289Z,-2.00
2019-01-24T12:06:30.169Z,-1.90
2019-01-24T12:08:34.626Z,-1.80
2019-01-24T12:10:40.333Z,-1.70
2019-01-24T12:12:45.167Z,-1.60
2019-01-24T12:14:52.525Z,-1.70
2019-01-24T12:17:00.770Z,-1.80
2019-01-24T12:19:05.780Z,-1.70
2019-01-24T12:21:10.757Z,-1.60
2019-01-24T12:23:16.305Z,-1.60
2019-01-24T12:25:22.931Z,-1.70
2019-01-24T12:27:28.522Z,-1.60
2019-01-24T12:29:33.824Z,-1.60
2019-01-24T12:31:39.089Z,-1.70
2019-01-24T12:33:46.319Z,-1.60
2019-01-24T12:35:50.981Z,-1.70
2019-01-24T12:37:56.116Z,-1.70
2019-01-24T12:40:00.650Z,-1.70
2019-01-24T12:42:10.575Z,-1.70
2019-01-24T12:44:17.785Z,-1.70
2019-01-24T12:46:22.575Z,-1.50
2019-01-24T12:48:28.572Z,-1.50
2019-01-24T12:50:33.611Z,-1.50
2019-01-24T12:52:38.514Z,-1.50
2019-01-24T12:54:44.712Z,-1.50
2019-01-24T12:56:51.746Z,-1.40
2019-01-24T12:58:56.205Z,-1.30
2019-01-24T13:01:01.058Z,-1.40
2019-01-24T13:03:05.804Z,-1.40
2019-01-24T13:05:10.745Z,-1.50
2019-01-24T13:07:18.503Z,-1.40
2019-01-24T13:09:22.760Z,-1.50
2019-01-24T13:11:27.763Z,-1.60
2019-01-24T13:13:32.319Z,-1.70
2019-01-24T13:15:37.069Z,-1.70
2019-01-24T13:17:41.554Z,-1.70
2019-01-24T13:19:46.647Z,-1.80
2019-01-24T13:21:51.235Z,-1.80
2019-01-24T13:23:55.885Z,-1.70
2019-01-24T13:26:02.017Z,-1.70
2019-01-24T13:28:07.196Z,-1.70
2019-01-24T13:30:20.774Z,-1.60
2019-01-24T13:32:25.547Z,-1.60
2019-01-24T13:34:32.273Z,-1.50
2019-01-24T13:36:38.963Z,-1.40
2019-01-24T13:38:44.328Z,-1.40
2019-01-24T13:40:50.585Z,-1.50
2019-01-24T13:42:55.202Z,-1.40
2019-01-24T13:44:59.700Z,-1.40
2019-01-24T13:47:04.741Z,-1.50
2019-01-24T13:49:09.233Z,-1.70
2019-01-24T13:51:16.952Z,-1.80
2019-01-24T13:53:21.953Z,-1.70
2019-01-24T13:55:26.726Z,-1.60
2019-01-24T13:57:31.708Z,-1.50
2019-01-24T13:59:36.874Z,-1.50
2019-01-24T14:01:42.112Z,-1.50
2019-01-24T14:04:16.527Z,-1.50
2019-01-24T14:06:23.135Z,-1.60
2019-01-24T14:08:30.463Z,-1.60
2019-01-24T14:10:36.524Z,-1.60
2019-01-24T14:12:41.485Z,-1.60
2019-01-24T14:14:46.242Z,-1.60
2019-01-24T14:16:50.849Z,-1.60
2019-01-24T14:18:58.273Z,-1.80
2019-01-24T14:21:03.483Z,-1.70
2019-01-24T14:23:10.407Z,-1.60
2019-01-24T14:25:18.359Z,-1.60
2019-01-24T14:27:22.800Z,-1.60
2019-01-24T14:29:29.799Z,-1.60
2019-01-24T14:31:35.544Z,-1.60
2019-01-24T14:33:41.051Z,-1.70
2019-01-24T14:35:46.805Z,-1.60
2019-01-24T14:37:52.022Z,-1.80
2019-01-24T14:39:57.582Z,-1.80
2019-01-24T14:42:02.233Z,-1.70
2019-01-24T14:44:11.324Z,-1.80
2019-01-24T14:46:16.288Z,-1.80
2019-01-24T14:48:21.349Z,-1.90
2019-01-24T14:50:29.360Z,-1.90
2019-01-24T14:52:35.549Z,-1.80
2019-01-24T14:54:41.376Z,-1.80
2019-01-24T14:56:48.298Z,-1.80
2019-01-24T14:58:56.143Z,-2.00
2019-01-24T15:01:06.058Z,-1.90
2019-01-24T15:03:10.769Z,-1.80
2019-01-24T15:05:15.469Z,-1.80
2019-01-24T15:07:21.948Z,-1.90
2019-01-24T15:09:26.971Z,-1.90
2019-01-24T15:11:33.644Z,-1.90
2019-01-24T15:13:38.343Z,-2.00
2019-01-24T15:15:43.526Z,-2.10
2019-01-24T15:17:49.368Z,-2.00
2019-01-24T15:19:54.307Z,-2.10
2019-01-24T15:21:59.248Z,-2.00
2019-01-24T15:24:04.700Z,-1.90
2019-01-24T15:26:12.016Z,-1.90
2019-01-24T15:28:16.983Z,-1.90
2019-01-24T15:30:23.613Z,-1.80
2019-01-24T15:32:28.213Z,-1.80
2019-01-24T15:34:39.244Z,-1.80
2019-01-24T15:36:43.641Z,-1.80
2019-01-24T15:38:50.229Z,-1.60
2019-01-24T15:40:59.484Z,-1.70
2019-01-24T15:43:04.995Z,-1.70
2019-01-24T15:45:11.000Z,-1.70
2019-01-24T15:47:15.818Z,-1.70
2019-01-24T15:49:20.439Z,-1.90
2019-01-24T15:51:27.270Z,-1.90
2019-01-24T15:53:35.605Z,-1.90
2019-01-24T15:55:42.537Z,-1.90
2019-01-24T15:57:47.530Z,-1.90
2019-01-24T15:59:52.263Z,-2.00
2019-01-24T16:01:59.304Z,-2.00
2019-01-24T16:04:03.782Z,-2.00
2019-01-24T16:06:09.728Z,-1.90
2019-01-24T16:08:14.656Z,-2.00
2019-01-24T16:10:20.015Z,-1.80
2019-01-24T16:12:24.628Z,-1.80
2019-01-24T16:14:32.203Z,-1.80
2019-01-24T16:16:39.179Z,-1.80
2019-01-24T16:18:46.919Z,-1.80
2019-01-24T16:20:54.935Z,-1.80
2019-01-24T16:22:59.710Z,-1.80
2019-01-24T16:25:04.955Z,-1.90
2019-01-24T16:27:09.422Z,-1.90
2019-01-24T16:29:15.912Z,-2.00
2019-01-24T16:31:21.091Z,-2.00
2019-01-24T16:33:30.205Z,-2.00
2019-01-24T16:35:36.112Z,-2.10
2019-01-24T16:37:48.694Z,-2.20
2019-01-24T16:39:58.767Z,-2.20
2019-01-24T16:42:06.058Z,-2.20
2019-01-24T16:44:11.624Z,-2.10
2019-01-24T16:46:18.310Z,-2.10
2019-01-24T16:48:25.560Z,-2.10
2019-01-24T16:50:31.067Z,-2.00
2019-01-24T16:52:36.133Z,-2.00
2019-01-24T16:54:44.355Z,-2.00
2019-01-24T16:56:50.212Z,-2.00
2019-01-24T16:58:56.118Z,-2.00
2019-01-24T17:01:09.014Z,-2.10
2019-01-24T17:03:14.953Z,-2.10
2019-01-24T17:05:19.911Z,-2.20
2019-01-24T17:07:24.460Z,-2.20
2019-01-24T17:09:29.417Z,-2.20
2019-01-24T17:11:36.022Z,-2.10
2019-01-24T17:13:40.668Z,-2.10
2019-01-24T17:15:45.214Z,-2.10
2019-01-24T17:18:00.440Z,-2.10
2019-01-24T17:20:10.052Z,-2.00
2019-01-24T17:22:14.881Z,-2.00
2019-01-24T17:24:19.863Z,-2.10
2019-01-24T17:26:28.280Z,-2.10
2019-01-24T17:28:33.389Z,-2.10
2019-01-24T17:30:40.760Z,-2.10
2019-01-24T17:32:46.949Z,-2.00
2019-01-24T17:34:53.610Z,-2.00
2019-01-24T17:37:04.628Z,-2.00
2019-01-24T17:39:14.622Z,-2.00
2019-01-24T17:41:20.710Z,-1.90
2019-01-24T17:43:30.783Z,-1.90
2019-01-24T17:45:37.247Z,-1.90
2019-01-24T17:47:45.289Z,-1.80
2019-01-24T17:49:51.542Z,-1.80
2019-01-24T17:51:59.454Z,-1.90
2019-01-24T17:54:04.043Z,-1.90
2019-01-24T17:56:09.079Z,-1.90
2019-01-24T17:58:14.412Z,-1.90
2019-01-24T18:00:22.462Z,-1.90
2019-01-24T18:02:27.155Z,-1.90
2019-01-24T18:04:32.052Z,-1.90
2019-01-24T18:06:37.367Z,-2.00
2019-01-24T18:08:42.092Z,-2.10
2019-01-24T18:10:46.660Z,-2.00
2019-01-24T18:12:52.015Z,-1.90
2019-01-24T18:14:56.877Z,-1.90
2019-01-24T18:17:01.612Z,-1.80
2019-01-24T18:19:06.689Z,-1.70
2019-01-24T18:21:18.150Z,-1.70
2019-01-24T18:23:23.229Z,-1.70
2019-01-24T18:25:28.278Z,-1.60
2019-01-24T18:27:33.592Z,-1.60
2019-01-24T18:29:39.111Z,-1.60
2019-01-24T18:31:54.576Z,-1.50
2019-01-24T18:33:59.556Z,-1.50
2019-01-24T18:36:06.431Z,-1.50
2019-01-24T18:38:11.668Z,-1.50
2019-01-24T18:40:20.090Z,-1.50
2019-01-24T18:42:25.819Z,-1.50
2019-01-24T18:44:33.050Z,-1.50
2019-01-24T18:46:39.037Z,-1.50
2019-01-24T18:48:43.797Z,-1.50
2019-01-24T18:50:53.884Z,-1.50
2019-01-24T18:53:07.210Z,-1.50
2019-01-24T18:55:12.498Z,-1.50
2019-01-24T18:57:17.479Z,-1.50
2019-01-24T18:59:22.254Z,-1.70
2019-01-24T19:01:30.375Z,-1.70
2019-01-24T19:03:35.454Z,-1.70
2019-01-24T19:05:42.176Z,-1.70
2019-01-24T19:07:46.985Z,-1.80
2019-01-24T19:09:55.059Z,-1.90
2019-01-24T19:12:03.897Z,-2.00
2019-01-24T19:14:09.862Z,-2.00
2019-01-24T19:16:15.267Z,-2.00
2019-01-24T19:18:21.204Z,-2.00
2019-01-24T19:20:28.198Z,-2.00
2019-01-24T19:22:35.209Z,-2.00
2019-01-24T19:24:43.832Z,-1.90
2019-01-24T19:26:48.643Z,-1.90
2019-01-24T19:28:55.296Z,-1.90
2019-01-24T19:31:00.119Z,-1.90
2019-01-24T19:33:06.750Z,-1.90
2019-01-24T19:35:13.055Z,-1.90
2019-01-24T19:37:20.318Z,-1.90
2019-01-24T19:39:25.291Z,-1.80
2019-01-24T19:41:30.275Z,-1.80
2019-01-24T19:43:35.150Z,-1.80
2019-01-24T19:45:44.631Z,-1.80
2019-01-24T19:47:49.550Z,-1.80
2019-01-24T19:49:54.425Z,-1.80
2019-01-24T19:52:07.582Z,-1.80
2019-01-24T19:54:16.639Z,-1.90
2019-01-24T19:56:24.387Z,-1.90
2019-01-24T19:58:28.974Z,-1.80
2019-01-24T20:00:33.918Z,-1.90
2019-01-24T20:02:39.262Z,-1.80
2019-01-24T20:04:44.084Z,-1.80
2019-01-24T20:06:50.596Z,-1.80
2019-01-24T20:09:00.095Z,-1.80
2019-01-24T20:11:04.670Z,-1.70
2019-01-24T20:13:11.508Z,-1.60
2019-01-24T20:15:20.482Z,-1.60
2019-01-24T20:17:26.472Z,-1.60
2019-01-24T20:19:33.971Z,-1.50
2019-01-24T20:21:39.548Z,-1.40
2019-01-24T20:23:44.584Z,-1.40
2019-01-24T20:25:49.419Z,-1.40
2019-01-24T20:27:55.100Z,-1.40
2019-01-24T20:30:03.480Z,-1.50
2019-01-24T20:32:14.637Z,-1.50
2019-01-24T20:34:26.087Z,-1.50
2019-01-24T20:36:33.886Z,-1.50
2019-01-24T20:38:40.239Z,-1.40
2019-01-24T20:40:52.316Z,-1.40
2019-01-24T20:43:00.574Z,-1.40
2019-01-24T20:45:06.638Z,-1.30
2019-01-24T20:47:12.774Z,-1.40
2019-01-24T20:49:21.609Z,-1.40
2019-01-24T20:51:26.773Z,-1.40
2019-01-24T20:53:32.944Z,-1.40
2019-01-24T20:55:38.000Z,-1.40
2019-01-24T20:57:43.014Z,-1.40
2019-01-24T20:59:48.543Z,-1.40
2019-01-24T21:01:54.637Z,-1.30
2019-01-24T21:04:03.116Z,-1.30
2019-01-24T21:06:10.001Z,-1.30
2019-01-24T21:08:16.125Z,-1.30
2019-01-24T21:10:22.944Z,-1.30
2019-01-24T21:12:29.019Z,-1.30
2019-01-24T21:14:35.291Z,-1.20
2019-01-24T21:16:48.902Z,-1.30
2019-01-24T21:18:54.493Z,-1.30
2019-01-24T21:21:04.597Z,-1.30
2019-01-24T21:23:09.269Z,-1.20
2019-01-24T21:25:15.136Z,-1.20
2019-01-24T21:27:21.512Z,-1.20
2019-01-24T21:29:31.251Z,-1.20
2019-01-24T21:31:38.003Z,-1.30
2019-01-24T21:33:46.094Z,-1.30
2019-01-24T21:35:51.788Z,-1.20
2019-01-24T21:38:00.730Z,-1.20
2019-01-24T21:40:06.753Z,-1.20
2019-01-24T21:42:13.424Z,-1.20
2019-01-24T21:44:20.900Z,-1.20
2019-01-24T21:46:27.729Z,-1.30
2019-01-24T21:48:34.497Z,-1.20
2019-01-24T21:50:42.796Z,-1.30
2019-01-24T21:52:47.876Z,-1.30
2019-01-24T21:54:54.607Z,-1.20
2019-01-24T21:57:01.399Z,-1.20
2019-01-24T21:59:07.066Z,-1.20
2019-01-24T22:01:13.040Z,-1.20
2019-01-24T22:05:19.114Z,-1.20
2019-01-24T22:07:47.522Z,-1.20
2019-01-24T22:10:06.361Z,-1.30
2019-01-24T22:12:24.051Z,-1.30
2019-01-24T22:14:40.757Z,-1.20
2019-01-24T22:16:45.802Z,-1.20
2019-01-24T22:18:54.026Z,-1.20
2019-01-24T22:23:36.374Z,-1.20
2019-01-24T22:23:38.773Z,-1.30
2019-01-24T22:25:43.815Z,-1.30
2019-01-24T22:27:49.014Z,-1.20
2019-01-24T22:29:53.606Z,-1.20
2019-01-24T22:32:17.428Z,-1.20
2019-01-24T22:34:22.013Z,-1.20
2019-01-24T22:41:38.835Z,-1.20
2019-01-24T22:43:56.908Z,-1.20
2019-01-24T22:46:14.373Z,-1.20
2019-01-24T22:48:30.972Z,-1.20
2019-01-24T22:50:49.182Z,-1.20
2019-01-24T22:52:54.793Z,-1.20
2019-01-24T22:55:19.165Z,-1.20
2019-01-24T22:57:24.354Z,-1.20
2019-01-24T22:59:31.534Z,-1.20
2019-01-24T23:02:01.044Z,-1.20
2019-01-24T23:04:17.511Z,-1.10
2019-01-24T23:06:34.004Z,-1.10
2019-01-24T23:08:50.319Z,-1.10
2019-01-24T23:11:07.810Z,-1.10
2019-01-24T23:13:15.064Z,-1.10
2019-01-24T23:15:39.150Z,-1.10
2019-01-24T23:18:02.722Z,-1.10
2019-01-24T23:20:19.147Z,-1.10
2019-01-24T23:22:37.977Z,-1.10
2019-01-24T23:24:54.636Z,-1.10
2019-01-24T23:27:10.714Z,-1.10
2019-01-24T23:29:27.485Z,-1.10
2019-01-24T23:31:44.302Z,-1.10
2019-01-24T23:34:00.402Z,-1.20
2019-01-24T23:36:17.212Z,-1.10
2019-01-24T23:38:33.512Z,-1.10
2019-01-24T23:40:51.258Z,-1.10
2019-01-24T23:42:58.180Z,-1.00
2019-01-24T23:45:04.291Z,-1.10
2019-01-24T23:47:09.945Z,-1.10
2019-01-24T23:49:35.067Z,-1.10
2019-01-24T23:51:51.950Z,-1.10
2019-01-24T23:53:57.894Z,-1.10
